Time;durP1;ratioP1;P1;durP2;ratioP2;P2;SDS_P1;SDS_P2;PMS_P1;PMS_P2;Temp;Humidity;BMP_temperature;BMP_pressure;BME280_temperature;BME280_humidity;BME280_pressure;Samples;Min_cycle;Max_cycle;Signal;HPM_P1;HPM_P2
2024/01/18 00:02:24;;;;;;;16.47;10.00;;;;;;;9.14;61.24;93977.00;5111984;28;20197;-67
2024/01/18 00:04:51;;;;;;;12.20;9.63;;;;;;;9.02;61.06;93984.06;5111486;28;20201;-68
2024/01/18 00:07:18;;;;;;;11.87;8.73;;;;;;;9.18;61.20;93980.88;5111798;28;20246;-67
2024/01/18 00:09:45;;;;;;;13.47;9.37;;;;;;;9.11;61.19;93973.00;5111439;28;20197;-67
2024/01/18 00:12:12;;;;;;;13.30;8.43;;;;;;;9.05;61.13;93974.38;5111004;28;20225;-67
2024/01/18 00:14:38;;;;;;;13.00;8.97;;;;;;;9.17;61.25;93974.97;5109526;28;20274;-66
2024/01/18 00:17:05;;;;;;;13.53;8.63;;;;;;;9.18;61.21;93975.75;5110518;28;20188;-69
2024/01/18 00:19:34;;;;;;;10.73;8.47;;;;;;;9.18;61.33;93973.22;5110278;28;20189;-67
2024/01/18 00:22:02;;;;;;;13.90;8.97;;;;;;;9.18;61.45;93975.75;5116997;28;20193;-65
2024/01/18 00:24:29;;;;;;;10.53;8.43;;;;;;;9.14;61.45;93965.03;5117385;28;20268;-66
2024/01/18 00:26:55;;;;;;;12.03;9.63;;;;;;;9.18;61.45;93966.34;5110649;28;20181;-67
2024/01/18 00:29:22;;;;;;;12.27;8.17;;;;;;;9.15;61.63;93964.09;5109514;28;20189;-63
2024/01/18 00:31:49;;;;;;;11.80;8.87;;;;;;;9.18;61.58;93966.34;5110525;28;20200;-66
2024/01/18 00:34:16;;;;;;;12.77;9.20;;;;;;;9.18;61.59;93971.47;5110262;28;20220;-64
2024/01/18 00:36:46;;;;;;;10.10;8.03;;;;;;;9.19;61.74;93978.16;5114640;28;20207;-65
2024/01/18 00:39:16;;;;;;;9.47;7.80;;;;;;;9.18;61.66;93968.91;5114116;28;20193;-66
2024/01/18 00:41:43;;;;;;;12.80;8.43;;;;;;;9.19;61.85;93964.59;5114664;28;20185;-67
2024/01/18 00:44:10;;;;;;;12.80;8.33;;;;;;;9.20;61.89;93958.56;5114096;28;20193;-65
2024/01/18 00:46:36;;;;;;;14.33;8.80;;;;;;;9.20;61.99;93977.22;5114408;28;20197;-65
2024/01/18 00:49:04;;;;;;;13.50;8.70;;;;;;;9.02;62.00;93943.25;5113884;28;20294;-64
2024/01/18 00:51:31;;;;;;;13.87;8.90;;;;;;;9.11;62.09;93944.97;5113992;28;20199;-66
2024/01/18 00:53:59;;;;;;;15.30;8.40;;;;;;;9.21;62.12;93973.72;5114254;28;20592;-65
2024/01/18 00:56:26;;;;;;;11.90;8.30;;;;;;;9.21;62.25;93960.16;5113479;28;20618;-64
2024/01/18 00:58:53;;;;;;;10.33;8.10;;;;;;;9.21;62.29;93950.78;5113780;28;20199;-65
2024/01/18 01:01:20;;;;;;;14.37;8.20;;;;;;;9.21;62.34;93955.88;5112277;28;20631;-65
2024/01/18 01:03:46;;;;;;;13.10;8.53;;;;;;;9.22;62.24;93941.38;5093617;28;20239;-66
2024/01/18 01:06:13;;;;;;;11.60;8.20;;;;;;;9.21;62.47;93937.22;5093673;28;20193;-65
2024/01/18 01:08:41;;;;;;;9.37;7.77;;;;;;;9.22;62.60;93933.72;5107706;28;20192;-65
2024/01/18 01:11:09;;;;;;;10.73;8.53;;;;;;;9.21;62.58;93932.91;5115729;28;20217;-66
2024/01/18 01:13:36;;;;;;;12.03;7.77;;;;;;;9.16;62.65;93924.91;5113988;28;20256;-68
2024/01/18 01:16:03;;;;;;;10.30;7.57;;;;;;;9.14;62.77;93911.47;5113775;28;20189;-63
2024/01/18 01:18:30;;;;;;;12.70;8.50;;;;;;;9.23;62.80;93914.91;5114437;27;20216;-67
2024/01/18 01:20:56;;;;;;;13.03;8.03;;;;;;;9.20;62.74;93910.91;5115980;28;20188;-65
2024/01/18 01:23:23;;;;;;;11.80;8.17;;;;;;;9.20;62.98;93894.81;5117843;28;20189;-65
2024/01/18 01:25:50;;;;;;;10.93;8.30;;;;;;;9.25;63.05;93895.16;5116779;28;20185;-67
2024/01/18 01:28:18;;;;;;;11.53;8.23;;;;;;;9.24;63.11;93871.41;5118491;28;20184;-67
2024/01/18 01:30:45;;;;;;;11.03;8.10;;;;;;;9.26;63.07;93874.59;5113833;28;20544;-65
2024/01/18 01:33:12;;;;;;;11.90;8.33;;;;;;;9.25;63.19;93885.75;5113422;28;20201;-67
2024/01/18 01:35:38;;;;;;;11.27;9.13;;;;;;;9.26;63.34;93900.09;5113977;28;20232;-65
2024/01/18 01:38:05;;;;;;;10.90;8.70;;;;;;;9.27;63.51;93893.25;5113775;28;20192;-63
2024/01/18 01:40:32;;;;;;;12.83;8.10;;;;;;;9.27;63.64;93898.34;5113787;28;20193;-65
2024/01/18 01:42:59;;;;;;;10.70;8.20;;;;;;;9.26;63.29;93874.59;5113994;28;20230;-65
2024/01/18 01:45:27;;;;;;;9.97;8.03;;;;;;;9.23;63.55;93877.44;5113523;28;20190;-65
2024/01/18 01:47:53;;;;;;;10.90;8.63;;;;;;;9.27;63.69;93876.19;5112170;28;20561;-64
2024/01/18 01:50:20;;;;;;;14.80;8.60;;;;;;;9.27;63.75;93865.19;5113759;28;20189;-66
2024/01/18 01:52:48;;;;;;;11.97;8.47;;;;;;;9.24;63.90;93868.84;5113209;28;20209;-64
2024/01/18 01:55:15;;;;;;;10.13;7.87;;;;;;;9.13;64.11;93845.34;5112629;28;20692;-64
2024/01/18 01:57:45;;;;;;;12.10;8.40;;;;;;;9.21;63.91;93853.84;5113122;28;20217;-65
2024/01/18 02:00:14;;;;;;;12.20;8.13;;;;;;;9.14;64.20;93821.41;5112416;28;20220;-65
2024/01/18 02:02:43;;;;;;;11.00;7.60;;;;;;;9.27;64.28;93871.06;5113423;28;20204;-66
2024/01/18 02:05:10;;;;;;;13.87;8.47;;;;;;;9.28;64.33;93851.47;5112238;28;20208;-64
2024/01/18 02:07:37;;;;;;;12.17;8.63;;;;;;;9.28;64.36;93861.66;5112213;28;20181;-64
2024/01/18 02:10:05;;;;;;;11.10;8.17;;;;;;;9.26;64.38;93859.28;5111778;28;20189;-64
2024/01/18 02:12:33;;;;;;;11.03;8.10;;;;;;;8.98;64.31;93809.34;5111698;28;20224;-64
2024/01/18 02:15:00;;;;;;;9.93;7.23;;;;;;;9.27;64.49;93855.78;5111748;27;20240;-63
2024/01/18 02:17:26;;;;;;;11.07;7.93;;;;;;;9.22;64.51;93845.22;5112233;28;20204;-65
2024/01/18 02:19:54;;;;;;;10.03;7.70;;;;;;;9.28;64.72;93847.19;5111691;28;20177;-65
2024/01/18 02:22:26;;;;;;;11.97;8.20;;;;;;;9.29;64.89;93853.09;5106527;28;20597;-64
2024/01/18 02:24:59;;;;;;;11.13;7.57;;;;;;;9.24;64.79;93837.41;5111511;28;20193;-67
2024/01/18 02:27:27;;;;;;;10.23;7.83;;;;;;;9.30;64.84;93859.78;5109941;28;20329;-66
2024/01/18 02:29:54;;;;;;;10.77;7.53;;;;;;;9.02;65.13;93790.25;5110898;28;20180;-65
2024/01/18 02:32:20;;;;;;;10.33;8.40;;;;;;;9.28;65.01;93826.78;5109353;28;20181;-68
2024/01/18 02:34:47;;;;;;;12.10;7.10;;;;;;;9.14;65.20;93812.00;5111789;28;20557;-66
2024/01/18 02:37:14;;;;;;;8.67;7.57;;;;;;;9.29;65.09;93833.47;5112805;28;20181;-65
2024/01/18 02:39:41;;;;;;;12.20;8.10;;;;;;;9.29;65.57;93813.06;5109164;28;20665;-67
2024/01/18 02:42:08;;;;;;;11.93;7.90;;;;;;;9.21;65.22;93797.72;5111500;28;20199;-65
2024/01/18 02:44:38;;;;;;;9.97;8.10;;;;;;;9.29;65.38;93807.16;5111695;28;20681;-67
2024/01/18 02:47:05;;;;;;;12.10;8.20;;;;;;;9.16;65.28;93782.06;5111771;28;20215;-65
2024/01/18 02:49:31;;;;;;;10.43;7.97;;;;;;;9.29;65.32;93812.28;5112411;28;20185;-68
2024/01/18 02:51:58;;;;;;;11.47;8.47;;;;;;;9.28;65.55;93808.94;5113597;28;20173;-67
2024/01/18 02:54:25;;;;;;;9.83;7.60;;;;;;;9.28;65.46;93792.78;5111383;28;20534;-62
2024/01/18 02:56:52;;;;;;;10.57;7.40;;;;;;;9.27;65.26;93816.72;5111544;28;20333;-66
2024/01/18 02:59:18;;;;;;;10.23;7.60;;;;;;;9.21;65.71;93820.66;5110614;28;20230;-65
2024/01/18 03:01:47;;;;;;;10.13;7.80;;;;;;;9.28;65.59;93825.94;5110318;28;20284;-64
2024/01/18 03:04:13;;;;;;;11.03;7.40;;;;;;;9.28;65.65;93828.50;5111614;28;20258;-65
2024/01/18 03:06:40;;;;;;;10.20;7.53;;;;;;;9.27;65.70;93796.31;5111895;28;20181;-66
2024/01/18 03:09:07;;;;;;;8.37;7.47;;;;;;;9.27;65.67;93798.84;5111705;28;20181;-65
2024/01/18 03:11:34;;;;;;;10.80;7.90;;;;;;;9.27;65.82;93801.41;5110393;28;20229;-67
2024/01/18 03:14:01;;;;;;;9.97;7.60;;;;;;;9.26;65.84;93821.00;5107854;28;20550;-65
2024/01/18 03:16:28;;;;;;;10.80;8.37;;;;;;;9.25;65.98;93809.22;5110192;28;20200;-64
2024/01/18 03:18:56;;;;;;;9.90;8.03;;;;;;;9.18;65.89;93800.56;5111297;28;20184;-65
2024/01/18 03:21:23;;;;;;;9.57;6.97;;;;;;;9.20;65.84;93811.44;5108211;28;20181;-64
2024/01/18 03:23:50;;;;;;;10.17;8.30;;;;;;;9.21;65.95;93794.38;5110188;28;20684;-66
2024/01/18 03:26:16;;;;;;;11.60;7.57;;;;;;;9.19;66.17;93802.16;5111232;28;20181;-65
2024/01/18 03:28:43;;;;;;;10.33;7.83;;;;;;;9.18;66.13;93809.97;5111180;28;20185;-65
2024/01/18 03:31:11;;;;;;;9.20;7.30;;;;;;;8.99;66.14;93786.28;5114398;28;20647;-73
2024/01/18 03:33:38;;;;;;;10.27;7.63;;;;;;;9.15;66.38;93807.72;5116943;28;20231;-65
2024/01/18 03:36:07;;;;;;;13.60;7.60;;;;;;;9.11;66.12;93822.53;5121132;28;20232;-66
2024/01/18 03:38:34;;;;;;;12.73;8.67;;;;;;;8.85;66.46;93776.63;5113101;28;20577;-65
2024/01/18 03:41:00;;;;;;;9.53;6.60;;;;;;;9.14;66.45;93795.91;5113462;28;20680;-65
2024/01/18 03:43:27;;;;;;;10.17;7.73;;;;;;;9.09;66.33;93811.66;5113114;28;20193;-67
2024/01/18 03:45:54;;;;;;;10.27;8.10;;;;;;;9.13;66.40;93799.41;5110593;28;20250;-68
2024/01/18 03:48:21;;;;;;;10.33;8.37;;;;;;;9.12;66.57;93795.28;5110202;28;20180;-63
2024/01/18 03:50:47;;;;;;;10.63;7.43;;;;;;;9.11;66.49;93816.59;5110445;28;20200;-64
2024/01/18 03:53:16;;;;;;;10.37;7.40;;;;;;;9.07;66.64;93777.06;5110522;28;20193;-66
2024/01/18 03:55:43;;;;;;;11.33;7.90;;;;;;;9.11;66.67;93816.59;5110710;28;20224;-67
2024/01/18 03:58:10;;;;;;;9.67;7.73;;;;;;;9.09;66.71;93809.13;5110029;28;20645;-68
2024/01/18 04:00:38;;;;;;;12.50;8.03;;;;;;;9.00;66.74;93789.63;5109217;28;20185;-65
2024/01/18 04:03:05;;;;;;;10.53;8.53;;;;;;;9.10;66.72;93809.91;5110519;28;20232;-66
2024/01/18 04:05:32;;;;;;;10.10;7.43;;;;;;;9.04;66.59;93807.03;5110274;28;20201;-66
2024/01/18 04:07:59;;;;;;;10.77;7.97;;;;;;;9.09;66.55;93796.38;5110472;28;20249;-66
2024/01/18 04:10:27;;;;;;;10.10;7.80;;;;;;;9.10;66.78;93827.78;5109525;28;20191;-68
2024/01/18 04:12:54;;;;;;;10.63;7.50;;;;;;;9.04;66.79;93816.44;5109996;28;20216;-68
2024/01/18 04:15:21;;;;;;;9.67;7.63;;;;;;;9.10;66.78;93802.25;5109848;28;20221;-65
2024/01/18 04:17:47;;;;;;;11.13;7.80;;;;;;;8.97;66.65;93787.38;5111473;28;20185;-65
2024/01/18 04:20:17;;;;;;;12.17;8.60;;;;;;;8.88;66.94;93786.50;5112497;28;20192;-66
2024/01/18 04:22:44;;;;;;;13.63;9.03;;;;;;;9.07;66.75;93808.47;5110859;28;20192;-67
2024/01/18 04:25:11;;;;;;;8.70;7.73;;;;;;;8.85;66.91;93783.47;5110155;28;20621;-67
2024/01/18 04:27:39;;;;;;;11.67;8.00;;;;;;;9.05;66.85;93834.13;5110263;28;20181;-65
2024/01/18 04:30:08;;;;;;;9.67;7.77;;;;;;;8.79;66.99;93774.66;5109904;28;20181;-67
2024/01/18 04:32:35;;;;;;;11.57;7.90;;;;;;;9.03;67.03;93822.47;5109489;28;20192;-68
2024/01/18 04:35:01;;;;;;;10.20;7.50;;;;;;;9.02;67.12;93838.72;5109777;28;20224;-67
2024/01/18 04:37:28;;;;;;;15.90;8.93;;;;;;;9.01;67.15;93819.25;5109733;28;20185;-66
2024/01/18 04:39:55;;;;;;;13.67;8.03;;;;;;;9.01;67.12;93832.00;5109770;28;20192;-63
2024/01/18 04:42:22;;;;;;;10.33;8.10;;;;;;;8.99;67.24;93824.53;5109074;28;20200;-68
2024/01/18 04:44:50;;;;;;;8.50;7.57;;;;;;;8.99;67.22;93786.28;5109790;28;20570;-65
2024/01/18 04:47:17;;;;;;;12.10;7.93;;;;;;;8.98;67.28;93773.66;5109263;28;20630;-65
2024/01/18 04:49:45;;;;;;;11.67;8.37;;;;;;;8.99;67.41;93809.22;5114711;28;20213;-69
2024/01/18 04:52:12;;;;;;;10.23;7.70;;;;;;;8.99;67.31;93832.19;5111304;28;20185;-65
2024/01/18 04:54:39;;;;;;;11.10;8.50;;;;;;;8.99;67.34;93793.94;5109772;28;20650;-65
2024/01/18 04:57:06;;;;;;;12.20;8.53;;;;;;;8.99;67.36;93814.31;5109787;28;20181;-67
2024/01/18 04:59:33;;;;;;;10.97;8.73;;;;;;;8.97;67.41;93795.81;5109460;28;20188;-64
2024/01/18 05:02:01;;;;;;;10.80;8.20;;;;;;;8.88;67.35;93795.91;5108769;28;20192;-66
2024/01/18 05:04:29;;;;;;;9.97;8.03;;;;;;;8.92;67.22;93790.38;5110227;28;20181;-64
2024/01/18 05:06:56;;;;;;;10.00;7.47;;;;;;;8.97;67.31;93795.81;5109543;28;20177;-65
2024/01/18 05:09:23;;;;;;;11.70;8.47;;;;;;;8.97;67.39;93813.66;5111054;28;20186;-64
2024/01/18 05:11:51;;;;;;;8.87;7.70;;;;;;;8.78;67.45;93796.81;5109873;28;20225;-64
2024/01/18 05:14:18;;;;;;;9.97;7.73;;;;;;;8.96;67.32;93822.25;5110225;28;20276;-66
2024/01/18 05:16:50;;;;;;;11.97;8.80;;;;;;;8.32;67.56;93734.16;5113168;28;20220;-66
2024/01/18 05:19:18;;;;;;;10.53;8.57;;;;;;;8.96;67.41;93801.06;5116819;28;20708;-67
2024/01/18 05:21:45;;;;;;;11.17;9.27;;;;;;;8.96;67.52;93829.13;5111206;28;20714;-64
2024/01/18 05:24:12;;;;;;;12.90;7.90;;;;;;;8.95;67.42;93809.69;5115165;28;20559;-65
2024/01/18 05:26:39;;;;;;;12.60;8.60;;;;;;;8.95;67.50;93833.41;5114786;28;20654;-67
2024/01/18 05:29:06;;;;;;;9.93;7.83;;;;;;;8.76;67.39;93788.53;5113606;28;20181;-61
2024/01/18 05:31:33;;;;;;;11.83;8.20;;;;;;;8.87;67.61;93825.72;5112174;28;20284;-65
2024/01/18 05:34:00;;;;;;;10.97;7.73;;;;;;;8.95;68.05;93822.44;5112976;28;20248;-64
2024/01/18 05:36:28;;;;;;;11.67;8.93;;;;;;;8.92;67.52;93822.72;5113457;28;20220;-66
2024/01/18 05:38:55;;;;;;;10.07;7.83;;;;;;;8.96;67.56;93839.31;5113253;28;20670;-67
2024/01/18 05:41:22;;;;;;;11.37;7.97;;;;;;;8.65;67.48;93760.72;5112768;28;20638;-63
2024/01/18 05:43:48;;;;;;;10.17;8.43;;;;;;;8.96;67.54;93819.72;5112664;28;20261;-63
2024/01/18 05:46:15;;;;;;;9.83;8.13;;;;;;;8.97;67.49;93835.81;5112453;28;20193;-67
2024/01/18 05:48:42;;;;;;;11.90;8.73;;;;;;;8.97;67.77;93813.66;5118563;28;20240;-66
2024/01/18 05:51:09;;;;;;;11.80;8.90;;;;;;;8.99;67.74;93821.97;5116128;28;20211;-66
2024/01/18 05:53:38;;;;;;;11.30;7.97;;;;;;;9.00;67.71;93832.97;5122555;28;20178;-65
2024/01/18 05:56:06;;;;;;;11.83;8.90;;;;;;;8.70;67.79;93771.25;5113311;28;20250;-66
2024/01/18 05:58:32;;;;;;;11.57;8.67;;;;;;;9.00;67.91;93832.97;5112927;28;20296;-66
2024/01/18 06:01:00;;;;;;;12.77;9.60;;;;;;;8.88;67.94;93812.00;5112124;28;20181;-66
2024/01/18 06:03:27;;;;;;;11.33;8.40;;;;;;;9.00;67.95;93818.47;5112574;28;20196;-66
2024/01/18 06:05:55;;;;;;;12.17;8.50;;;;;;;8.97;67.96;93826.41;5112439;28;20688;-67
2024/01/18 06:08:21;;;;;;;12.10;8.20;;;;;;;9.02;67.84;93814.03;5113064;28;20185;-64
2024/01/18 06:10:50;;;;;;;14.23;6.80;;;;;;;8.93;75.40;93775.88;5113418;28;20554;-66
2024/01/18 06:13:17;;;;;;;9.43;7.07;;;;;;;9.72;100.00;93815.66;5114104;28;20193;-65
2024/01/18 06:15:43;;;;;;;10.43;6.47;;;;;;;10.70;100.00;93824.31;5113221;28;20225;-65
2024/01/18 06:18:10;;;;;;;9.43;6.73;;;;;;;11.50;100.00;93805.66;5113017;28;20193;-64
2024/01/18 06:20:37;;;;;;;6.77;5.40;;;;;;;12.40;100.00;93828.34;5123293;27;20189;-65
2024/01/18 06:23:04;;;;;;;12.17;7.80;;;;;;;12.92;97.02;93813.03;5111990;28;20626;-67
2024/01/18 06:25:31;;;;;;;7.73;6.23;;;;;;;12.88;93.36;93805.84;5112451;27;20201;-68
2024/01/18 06:27:59;;;;;;;11.43;7.20;;;;;;;13.09;89.86;93839.34;5112173;28;20196;-66
2024/01/18 06:30:26;;;;;;;12.47;7.57;;;;;;;12.94;87.01;93831.59;5107174;28;20197;-67
2024/01/18 06:32:53;;;;;;;9.53;7.47;;;;;;;12.85;83.54;93829.28;5107690;28;20770;-66
2024/01/18 06:35:20;;;;;;;9.07;6.90;;;;;;;12.67;80.96;93820.13;5107729;28;20213;-64
2024/01/18 06:37:46;;;;;;;11.97;7.60;;;;;;;12.52;78.98;93817.50;5110093;28;20197;-66
2024/01/18 06:40:15;;;;;;;8.93;7.13;;;;;;;12.20;77.85;93786.94;5111819;28;20641;-66
2024/01/18 06:42:41;;;;;;;9.23;6.73;;;;;;;11.84;77.10;93743.13;5122180;28;20212;-63
2024/01/18 06:45:11;;;;;;;9.87;6.80;;;;;;;12.11;76.23;93800.78;5128527;28;20193;-68
2024/01/18 06:47:37;;;;;;;8.03;6.77;;;;;;;11.97;76.10;93820.25;5111643;28;20197;-65
2024/01/18 06:50:05;;;;;;;10.20;6.70;;;;;;;11.81;75.56;93798.81;5110653;28;20199;-63
2024/01/18 06:52:31;;;;;;;12.00;7.50;;;;;;;11.67;75.09;93778.22;5109845;28;20193;-63
2024/01/18 06:54:58;;;;;;;8.57;7.67;;;;;;;11.72;74.80;93822.88;5110880;28;20189;-64
2024/01/18 06:57:25;;;;;;;9.60;7.07;;;;;;;11.65;74.47;93787.84;5110029;28;20220;-65
2024/01/18 06:59:54;;;;;;;12.43;7.20;;;;;;;11.56;74.26;93798.09;5110089;28;20196;-67
2024/01/18 07:02:22;;;;;;;9.77;6.80;;;;;;;11.50;74.09;93818.47;5110160;28;20540;-64
2024/01/18 07:04:48;;;;;;;13.97;7.53;;;;;;;11.37;73.63;93769.53;5110098;28;20189;-64
2024/01/18 07:07:15;;;;;;;9.90;7.70;;;;;;;11.38;73.63;93777.06;5109774;28;20638;-64
2024/01/18 07:09:42;;;;;;;8.90;6.97;;;;;;;11.34;73.32;93775.00;5110031;28;20195;-66
2024/01/18 07:12:10;;;;;;;10.03;7.30;;;;;;;11.30;73.24;93785.53;5109819;28;20224;-63
2024/01/18 07:14:37;;;;;;;9.93;6.93;;;;;;;11.26;73.35;93773.25;5109706;28;20192;-65
2024/01/18 07:17:04;;;;;;;8.73;7.23;;;;;;;11.18;73.13;93740.81;5108829;28;20220;-69
2024/01/18 07:19:32;;;;;;;13.10;7.50;;;;;;;11.15;72.98;93733.47;5109150;28;20197;-63
2024/01/18 07:21:59;;;;;;;9.37;6.90;;;;;;;11.19;72.85;93737.28;5109852;28;20216;-66
2024/01/18 07:24:30;;;;;;;8.70;6.57;;;;;;;11.17;72.83;93726.41;5109778;28;20200;-66
2024/01/18 07:26:57;;;;;;;8.83;6.43;;;;;;;11.10;72.56;93658.19;5112994;28;20185;-66
2024/01/18 07:29:24;;;;;;;10.77;7.37;;;;;;;11.13;72.66;93691.88;5109486;28;20659;-67
2024/01/18 07:31:51;;;;;;;9.90;6.93;;;;;;;11.13;72.52;93698.75;5109686;28;20173;-64
2024/01/18 07:34:18;;;;;;;8.43;6.70;;;;;;;11.12;72.40;93689.50;5108992;28;20205;-65
2024/01/18 07:36:46;;;;;;;8.47;6.90;;;;;;;11.12;72.46;93690.28;5109359;28;20216;-62
2024/01/18 07:39:12;;;;;;;12.10;6.77;;;;;;;11.02;72.39;93654.69;5109367;28;20685;-63
2024/01/18 07:41:39;;;;;;;8.23;6.43;;;;;;;11.16;72.18;93671.09;5109487;28;20196;-66
2024/01/18 07:44:06;;;;;;;11.43;6.93;;;;;;;11.18;72.11;93676.84;5109270;28;20181;-67
2024/01/18 07:46:33;;;;;;;7.40;6.47;;;;;;;11.22;71.90;93654.25;5097899;28;20188;-65
2024/01/18 07:49:01;;;;;;;7.33;6.57;;;;;;;11.25;71.95;93667.53;5109010;28;20193;-63
2024/01/18 07:51:28;;;;;;;9.63;6.90;;;;;;;11.24;71.64;93639.56;5109468;28;20177;-66
2024/01/18 07:53:57;;;;;;;10.40;6.23;;;;;;;11.33;71.58;93647.97;5109501;28;20287;-64
2024/01/18 07:56:24;;;;;;;8.47;6.53;;;;;;;11.38;71.54;93646.50;5109145;28;20235;-68
2024/01/18 07:58:50;;;;;;;8.43;6.77;;;;;;;11.45;71.23;93642.31;5109367;28;20256;-66
2024/01/18 08:01:18;;;;;;;9.10;6.23;;;;;;;11.52;71.03;93635.53;5109042;28;20181;-67
2024/01/18 08:03:44;;;;;;;8.17;6.30;;;;;;;11.60;70.86;93651.81;5108966;28;20296;-66
2024/01/18 08:06:12;;;;;;;10.27;7.03;;;;;;;11.69;70.61;93613.19;5108703;28;20189;-66
2024/01/18 08:08:40;;;;;;;8.13;6.53;;;;;;;11.77;70.54;93636.19;5109116;28;20641;-65
2024/01/18 08:11:11;;;;;;;8.43;7.10;;;;;;;11.94;70.26;93634.34;5108566;28;20247;-65
2024/01/18 08:13:37;;;;;;;10.40;7.87;;;;;;;12.19;69.36;93629.03;5108897;28;20201;-64
2024/01/18 08:16:06;;;;;;;8.37;7.40;;;;;;;12.46;69.14;93645.59;5108321;28;20215;-63
2024/01/18 08:18:32;;;;;;;9.93;7.50;;;;;;;12.54;68.65;93633.47;5108508;28;20625;-64
2024/01/18 08:20:59;;;;;;;8.63;7.30;;;;;;;12.59;68.60;93632.97;5108333;28;20573;-64
2024/01/18 08:23:26;;;;;;;11.73;8.20;;;;;;;12.45;68.59;93578.13;5109003;28;20196;-65
2024/01/18 08:25:53;;;;;;;8.00;6.67;;;;;;;12.63;68.53;93612.88;5108748;28;20189;-64
2024/01/18 08:28:21;;;;;;;8.93;7.30;;;;;;;12.57;68.65;93626.44;5108894;28;20775;-63
2024/01/18 08:30:48;;;;;;;9.13;7.20;;;;;;;12.52;68.58;93616.66;5109276;28;20319;-66
2024/01/18 08:33:15;;;;;;;9.40;7.20;;;;;;;12.37;68.40;93585.09;5108280;28;20189;-67
2024/01/18 08:35:42;;;;;;;11.00;7.47;;;;;;;12.56;68.38;93648.69;5109682;28;20189;-67
2024/01/18 08:38:09;;;;;;;11.57;8.47;;;;;;;12.49;68.55;93596.53;5109022;28;20196;-63
2024/01/18 08:40:35;;;;;;;8.67;7.20;;;;;;;12.47;68.42;93635.16;5108916;28;20193;-63
2024/01/18 08:43:02;;;;;;;12.37;7.90;;;;;;;12.45;68.24;93628.63;5108569;28;20193;-65
2024/01/18 08:45:31;;;;;;;10.33;8.03;;;;;;;12.42;68.47;93632.31;5108167;28;20200;-66
2024/01/18 08:47:58;;;;;;;10.83;7.93;;;;;;;12.39;68.35;93617.31;5108215;28;20591;-66
2024/01/18 08:50:24;;;;;;;11.43;7.73;;;;;;;12.38;68.36;93602.06;5108967;28;20200;-65
2024/01/18 08:52:52;;;;;;;11.77;8.67;;;;;;;12.37;68.42;93634.63;5108693;28;20200;-66
2024/01/18 08:55:19;;;;;;;10.37;8.07;;;;;;;12.27;68.31;93604.09;5110086;28;20205;-66
2024/01/18 08:57:46;;;;;;;10.07;8.07;;;;;;;12.27;68.21;93622.06;5115651;28;20224;-64
2024/01/18 09:00:17;;;;;;;11.13;7.90;;;;;;;12.35;68.32;93628.06;5119078;28;20196;-65
2024/01/18 09:02:45;;;;;;;11.73;8.50;;;;;;;12.36;68.36;93609.94;5114969;28;20280;-66
2024/01/18 09:05:12;;;;;;;12.03;8.47;;;;;;;12.37;68.27;93652.56;5121822;28;20198;-68
2024/01/18 09:07:38;;;;;;;14.23;8.67;;;;;;;12.22;68.28;93608.97;5118151;28;20193;-65
2024/01/18 09:10:07;;;;;;;12.07;9.10;;;;;;;12.22;68.35;93592.78;5113128;28;20238;-66
2024/01/18 09:12:33;;;;;;;12.57;8.67;;;;;;;12.43;68.01;93594.66;5118454;28;20700;-69
2024/01/18 09:15:00;;;;;;;9.70;7.77;;;;;;;12.30;68.05;93603.78;5115412;28;20261;-66
2024/01/18 09:17:27;;;;;;;11.60;8.47;;;;;;;12.42;67.88;93614.38;5114780;28;20205;-67
2024/01/18 09:19:55;;;;;;;10.70;8.43;;;;;;;12.53;68.00;93590.06;5113474;28;20195;-64
2024/01/18 09:22:22;;;;;;;10.17;8.63;;;;;;;12.58;67.69;93636.50;5112969;28;20196;-66
2024/01/18 09:24:49;;;;;;;10.70;8.90;;;;;;;12.63;67.77;93598.28;5112811;28;20193;-64
2024/01/18 09:27:16;;;;;;;12.27;8.67;;;;;;;12.68;67.63;93554.94;5114547;27;20184;-66
2024/01/18 09:29:44;;;;;;;12.93;8.80;;;;;;;12.77;67.54;93553.09;5111286;28;20253;-66
2024/01/18 09:32:12;;;;;;;12.47;9.50;;;;;;;12.80;67.24;93578.38;5111239;28;20195;-65
2024/01/18 09:34:39;;;;;;;16.37;9.00;;;;;;;12.86;67.04;93557.13;5110750;28;20204;-63
2024/01/18 09:37:07;;;;;;;14.97;9.00;;;;;;;12.97;66.96;93536.16;5111800;28;20213;-65
2024/01/18 09:39:34;;;;;;;16.07;8.40;;;;;;;13.25;66.87;93571.41;5111912;28;20630;-64
2024/01/18 09:42:03;;;;;;;10.83;8.87;;;;;;;13.22;66.59;93518.69;5111771;28;20192;-65
2024/01/18 09:44:31;;;;;;;11.50;8.70;;;;;;;13.63;66.24;93576.34;5112202;28;20287;-67
2024/01/18 09:46:59;;;;;;;12.83;9.63;;;;;;;13.85;65.97;93557.34;5110902;28;20706;-66
2024/01/18 09:49:29;;;;;;;10.47;8.50;;;;;;;14.05;65.80;93500.97;5111675;28;20212;-65
2024/01/18 09:51:58;;;;;;;13.40;8.30;;;;;;;14.30;65.43;93527.84;5111691;28;20185;-64
2024/01/18 09:54:26;;;;;;;10.07;8.23;;;;;;;14.54;65.00;93518.09;5111570;28;20197;-64
2024/01/18 09:56:54;;;;;;;11.50;7.80;;;;;;;14.78;64.80;93511.66;5110940;28;20251;-65
2024/01/18 09:59:22;;;;;;;17.63;8.60;;;;;;;14.96;64.39;93488.75;5111405;28;20600;-65
2024/01/18 10:01:49;;;;;;;10.60;7.83;;;;;;;15.23;64.15;93502.47;5111518;28;20193;-64
2024/01/18 10:04:19;;;;;;;9.27;7.73;;;;;;;14.91;63.83;93426.78;5111388;28;20195;-66
2024/01/18 10:06:46;;;;;;;9.30;7.93;;;;;;;15.56;63.53;93473.41;5110150;28;20733;-63
2024/01/18 10:09:14;;;;;;;10.37;7.47;;;;;;;15.26;63.20;93406.81;5110668;28;20240;-66
2024/01/18 10:11:44;;;;;;;12.03;8.23;;;;;;;15.87;62.97;93475.41;5110871;28;20231;-64
2024/01/18 10:14:11;;;;;;;10.80;8.30;;;;;;;15.42;62.58;93368.78;5111055;28;20246;-64
2024/01/18 10:16:40;;;;;;;10.30;7.70;;;;;;;15.93;62.92;93448.00;5110918;28;20265;-69
2024/01/18 10:19:14;;;;;;;8.97;7.30;;;;;;;16.04;62.58;93468.03;5110091;28;20193;-66
2024/01/18 10:21:41;;;;;;;10.50;7.40;;;;;;;16.09;62.27;93442.44;5110845;28;20272;-66
2024/01/18 10:24:12;;;;;;;10.00;7.53;;;;;;;16.14;62.42;93440.03;5114207;28;20217;-67
2024/01/18 10:26:39;;;;;;;11.00;7.47;;;;;;;16.20;62.18;93461.66;5111179;28;20189;-67
2024/01/18 10:29:08;;;;;;;10.60;7.70;;;;;;;16.24;62.04;93419.78;5109250;28;20199;-68
2024/01/18 10:31:38;;;;;;;10.43;8.03;;;;;;;16.36;61.93;93426.88;5111518;28;20243;-63
2024/01/18 10:34:06;;;;;;;9.97;7.57;;;;;;;16.46;61.56;93440.16;5111019;28;20197;-67
2024/01/18 10:36:34;;;;;;;9.73;7.77;;;;;;;16.61;61.40;93445.84;5110520;28;20213;-65
2024/01/18 10:39:15;;;;;;;9.40;7.40;;;;;;;16.79;61.26;93434.84;5111241;28;20192;-68
2024/01/18 10:41:42;;;;;;;10.13;7.67;;;;;;;16.80;60.97;93401.13;5110704;28;20181;-66
2024/01/18 10:44:10;;;;;;;13.57;9.07;;;;;;;17.09;60.74;93422.19;5110566;28;20205;-68
2024/01/18 10:46:38;;;;;;;12.73;7.87;;;;;;;17.24;60.59;93425.28;5107652;28;20208;-65
2024/01/18 10:49:07;;;;;;;12.80;7.53;;;;;;;17.29;60.37;93383.28;5110192;28;20346;-66
2024/01/18 10:51:34;;;;;;;9.87;7.77;;;;;;;17.48;60.28;93397.84;5108438;28;20212;-67
2024/01/18 10:54:02;;;;;;;11.53;9.10;;;;;;;17.59;60.07;93396.38;5110697;28;20192;-65
2024/01/18 10:56:28;;;;;;;12.27;8.60;;;;;;;17.54;59.91;93368.56;5108101;28;20189;-66
2024/01/18 10:58:55;;;;;;;12.87;8.87;;;;;;;17.78;59.55;93392.81;5110605;28;20275;-67
2024/01/18 11:01:24;;;;;;;11.80;7.87;;;;;;;17.85;59.50;93387.59;5110975;28;20200;-69
2024/01/18 11:03:52;;;;;;;11.77;8.57;;;;;;;17.98;59.21;93394.44;5110366;28;20195;-69
2024/01/18 11:06:19;;;;;;;13.60;7.97;;;;;;;18.09;59.15;93408.44;5113171;28;20201;-66
2024/01/18 11:08:49;;;;;;;9.47;8.23;;;;;;;18.20;59.00;93392.22;5120631;28;20197;-65
2024/01/18 11:11:16;;;;;;;10.30;7.53;;;;;;;18.33;58.79;93383.50;5124654;28;20713;-66
2024/01/18 11:13:45;;;;;;;11.90;8.13;;;;;;;18.28;58.76;93337.59;5111292;28;20276;-64
2024/01/18 11:16:12;;;;;;;10.87;7.30;;;;;;;18.52;58.43;93343.63;5110471;28;20185;-66
2024/01/18 11:18:40;;;;;;;11.10;8.20;;;;;;;18.63;58.34;93366.19;5109258;28;20612;-66
2024/01/18 11:21:08;;;;;;;13.10;7.00;;;;;;;18.73;58.07;93306.91;5109208;28;20185;-66
2024/01/18 11:23:36;;;;;;;11.03;7.83;;;;;;;18.63;57.58;93287.72;5110096;28;20181;-67
2024/01/18 11:26:05;;;;;;;10.23;7.57;;;;;;;18.75;57.73;93307.50;5110036;28;20196;-67
2024/01/18 11:28:32;;;;;;;10.00;7.63;;;;;;;18.83;57.69;93310.78;5110048;28;20193;-66
2024/01/18 11:31:00;;;;;;;9.33;7.03;;;;;;;19.03;57.58;93334.59;5109193;28;20643;-65
2024/01/18 11:33:27;;;;;;;7.23;6.43;;;;;;;19.11;57.47;93329.06;5109988;28;20227;-67